createdAt,value
2022-12-16T00:00:15.056Z,3.30
2022-12-16T00:02:45.967Z,4.13
2022-12-16T00:05:16.819Z,3.95
2022-12-16T00:07:47.667Z,2.97
2022-12-16T00:10:19.005Z,4.63
2022-12-16T00:12:49.755Z,3.67
2022-12-16T00:15:25.299Z,3.30
2022-12-16T00:17:56.096Z,3.20
2022-12-16T00:20:26.839Z,3.85
2022-12-16T00:22:57.608Z,3.60
2022-12-16T00:25:28.374Z,3.88
2022-12-16T00:28:00.568Z,4.00
2022-12-16T00:30:34.038Z,5.03
2022-12-16T00:33:04.837Z,5.80
2022-12-16T00:35:35.986Z,5.53
2022-12-16T00:38:06.734Z,6.95
2022-12-16T00:40:39.168Z,6.30
2022-12-16T00:43:09.926Z,6.35
2022-12-16T00:45:43.436Z,6.90
2022-12-16T00:48:14.279Z,5.72
2022-12-16T00:50:47.435Z,5.88
2022-12-16T00:53:18.266Z,6.28
2022-12-16T00:55:49.079Z,7.38
2022-12-16T00:58:19.994Z,8.63
2022-12-16T01:00:55.530Z,7.53
2022-12-16T01:03:26.529Z,6.90
2022-12-16T01:05:57.424Z,7.40
2022-12-16T01:08:28.316Z,7.40
2022-12-16T01:11:00.675Z,7.05
2022-12-16T01:13:32.007Z,6.75
2022-12-16T01:16:06.432Z,6.75
2022-12-16T01:18:37.854Z,7.53
2022-12-16T01:21:09.791Z,6.78
2022-12-16T01:23:41.284Z,8.05
2022-12-16T01:26:18.135Z,7.72
2022-12-16T01:31:25.221Z,7.63
2022-12-16T01:33:56.170Z,6.55
2022-12-16T01:36:27.385Z,7.68
2022-12-16T01:38:58.243Z,5.13
2022-12-16T01:41:29.115Z,5.47
2022-12-16T01:44:19.734Z,3.78
2022-12-16T01:46:57.946Z,3.75
2022-12-16T01:49:32.010Z,3.25
2022-12-16T01:52:07.877Z,3.63
2022-12-16T01:54:42.927Z,3.38
2022-12-16T01:57:17.093Z,3.55
2022-12-16T01:59:51.093Z,3.90
2022-12-16T02:02:24.968Z,3.40
2022-12-16T02:05:08.157Z,3.58
2022-12-16T02:07:39.138Z,3.80
2022-12-16T02:10:12.108Z,4.35
2022-12-16T02:12:51.189Z,4.30
2022-12-16T02:15:34.778Z,4.53
2022-12-16T02:18:15.570Z,4.13
2022-12-16T02:21:21.494Z,4.03
2022-12-16T02:24:28.452Z,3.70
2022-12-16T02:27:33.691Z,4.18
2022-12-16T02:30:27.312Z,4.13
2022-12-16T02:33:14.550Z,3.85
2022-12-16T02:35:52.280Z,5.22
2022-12-16T02:38:29.090Z,5.57
2022-12-16T02:43:52.341Z,4.90
2022-12-16T02:46:29.047Z,4.05
2022-12-16T02:49:00.294Z,4.50
2022-12-16T02:51:31.257Z,3.80
2022-12-16T02:54:01.992Z,3.88
2022-12-16T02:56:44.396Z,4.63
2022-12-16T02:59:23.444Z,4.20
2022-12-16T03:02:06.190Z,4.82
2022-12-16T03:04:44.346Z,4.53
2022-12-16T03:07:18.630Z,5.10
2022-12-16T03:09:51.884Z,4.43
2022-12-16T03:12:24.577Z,3.92
2022-12-16T03:14:58.100Z,4.22
2022-12-16T03:17:32.663Z,5.50
2022-12-16T03:20:13.406Z,7.10
2022-12-16T03:22:48.082Z,7.57
2022-12-16T03:25:19.431Z,5.53
2022-12-16T03:27:57.832Z,5.20
2022-12-16T03:30:32.719Z,4.50
2022-12-16T03:33:10.785Z,4.65
2022-12-16T03:35:46.090Z,5.13
2022-12-16T03:38:17.934Z,6.18
2022-12-16T03:40:48.955Z,4.97
2022-12-16T03:43:20.138Z,4.75
2022-12-16T03:45:57.504Z,4.85
2022-12-16T03:48:31.298Z,4.97
2022-12-16T03:51:02.334Z,4.82
2022-12-16T03:53:33.500Z,4.40
2022-12-16T03:56:05.091Z,4.20
2022-12-16T03:58:35.996Z,4.95
2022-12-16T04:01:06.783Z,4.78
2022-12-16T04:03:40.951Z,5.50
2022-12-16T04:06:11.959Z,5.10
2022-12-16T04:08:42.694Z,6.72
2022-12-16T04:11:25.723Z,5.65
2022-12-16T04:14:08.783Z,4.85
2022-12-16T04:16:51.960Z,4.88
2022-12-16T04:19:40.923Z,4.47
2022-12-16T04:22:28.807Z,3.95
2022-12-16T04:24:59.842Z,4.53
2022-12-16T04:27:30.610Z,4.40
2022-12-16T04:30:13.658Z,4.32
2022-12-16T04:32:57.023Z,4.07
2022-12-16T04:35:42.603Z,4.55
2022-12-16T04:38:25.709Z,4.28
2022-12-16T04:41:08.730Z,4.30
2022-12-16T04:43:51.995Z,3.60
2022-12-16T04:46:35.200Z,4.47
2022-12-16T04:49:18.430Z,4.57
2022-12-16T04:52:04.391Z,4.78
2022-12-16T04:54:47.415Z,3.97
2022-12-16T04:57:30.283Z,4.25
2022-12-16T05:00:13.640Z,4.13
2022-12-16T05:02:56.836Z,4.30
2022-12-16T05:05:39.887Z,4.10
2022-12-16T05:08:25.472Z,4.13
2022-12-16T05:11:08.598Z,3.92
2022-12-16T05:13:51.580Z,4.65
2022-12-16T05:16:34.698Z,4.82
2022-12-16T05:19:18.199Z,4.30
2022-12-16T05:22:01.351Z,4.97
2022-12-16T05:24:52.560Z,4.95
2022-12-16T05:27:36.092Z,4.35
2022-12-16T05:30:19.556Z,5.78
2022-12-16T05:33:04.582Z,4.47
2022-12-16T05:35:53.514Z,4.60
2022-12-16T05:38:36.608Z,7.07
2022-12-16T05:41:22.229Z,4.55
2022-12-16T05:44:05.282Z,4.75
2022-12-16T05:46:48.446Z,4.78
2022-12-16T05:49:31.570Z,4.70
2022-12-16T05:52:14.546Z,4.22
2022-12-16T05:54:57.666Z,6.10
2022-12-16T05:57:43.210Z,6.20
2022-12-16T06:00:27.653Z,6.32
2022-12-16T06:03:10.437Z,7.10
2022-12-16T06:05:53.146Z,6.88
2022-12-16T06:08:44.291Z,8.48
2022-12-16T06:11:27.030Z,8.13
2022-12-16T06:14:12.276Z,7.38
2022-12-16T06:16:55.171Z,6.32
2022-12-16T06:19:38.199Z,7.00
2022-12-16T06:22:23.793Z,6.20
2022-12-16T06:25:06.511Z,6.90
2022-12-16T06:27:49.257Z,7.30
2022-12-16T06:30:34.539Z,5.80
2022-12-16T06:33:17.341Z,6.20
2022-12-16T06:36:00.001Z,6.03
2022-12-16T06:38:42.757Z,6.97
2022-12-16T06:41:25.464Z,8.25
2022-12-16T06:44:08.134Z,7.13
2022-12-16T06:46:53.481Z,6.97
2022-12-16T06:49:36.225Z,7.47
2022-12-16T06:52:19.247Z,7.05
2022-12-16T06:55:01.939Z,7.45
2022-12-16T06:57:44.681Z,7.80
2022-12-16T07:00:28.244Z,7.45
2022-12-16T07:03:13.574Z,7.05
2022-12-16T07:05:56.382Z,7.43
2022-12-16T07:08:39.059Z,6.93
2022-12-16T07:11:21.806Z,6.05
2022-12-16T07:14:04.719Z,6.63
2022-12-16T07:16:47.802Z,6.95
2022-12-16T07:19:33.122Z,6.68
2022-12-16T07:22:16.007Z,5.88
2022-12-16T07:24:58.664Z,6.38
2022-12-16T07:27:41.353Z,7.18
2022-12-16T07:30:25.339Z,7.30
2022-12-16T07:33:07.982Z,8.07
2022-12-16T07:35:53.236Z,7.05
2022-12-16T07:38:36.136Z,6.85
2022-12-16T07:41:18.812Z,5.47
2022-12-16T07:44:01.471Z,5.90
2022-12-16T07:46:50.058Z,6.43
2022-12-16T07:49:33.654Z,8.25
2022-12-16T07:52:19.028Z,8.75
2022-12-16T07:55:01.656Z,10.05
2022-12-16T07:57:44.356Z,9.25
2022-12-16T08:00:27.886Z,9.13
2022-12-16T08:03:11.100Z,9.15
2022-12-16T08:06:02.681Z,8.70
2022-12-16T08:08:47.958Z,7.57
2022-12-16T08:11:30.623Z,6.88
2022-12-16T08:14:13.284Z,6.72
2022-12-16T08:17:10.691Z,6.28
2022-12-16T08:19:53.553Z,6.22
2022-12-16T08:22:37.252Z,6.65
2022-12-16T08:25:23.167Z,7.18
2022-12-16T08:28:09.844Z,7.70
2022-12-16T08:30:52.535Z,8.40
2022-12-16T08:33:35.517Z,9.05
2022-12-16T08:36:18.539Z,9.45
2022-12-16T08:39:01.264Z,9.32
2022-12-16T08:41:47.356Z,9.63
2022-12-16T08:44:30.223Z,9.75
2022-12-16T08:47:24.696Z,10.20
2022-12-16T08:50:07.479Z,9.00
2022-12-16T08:52:50.155Z,9.05
2022-12-16T08:55:33.043Z,8.57
2022-12-16T08:58:21.127Z,9.27
2022-12-16T09:01:07.480Z,9.05
2022-12-16T09:03:50.747Z,8.48
2022-12-16T09:06:38.606Z,7.72
2022-12-16T09:09:23.227Z,9.07
2022-12-16T09:12:05.907Z,7.65
2022-12-16T09:14:51.092Z,7.20
2022-12-16T09:17:33.932Z,6.78
2022-12-16T09:20:21.969Z,6.63
2022-12-16T09:23:04.626Z,8.38
2022-12-16T09:25:47.284Z,8.43
2022-12-16T09:28:30.023Z,8.23
2022-12-16T09:31:15.281Z,7.50
2022-12-16T09:33:57.992Z,7.20
2022-12-16T09:36:40.770Z,6.97
2022-12-16T09:39:23.559Z,7.60
2022-12-16T09:42:16.591Z,35.20
2022-12-16T09:45:12.000Z,7.07
2022-12-16T09:48:04.952Z,7.43
2022-12-16T09:50:48.248Z,7.55
2022-12-16T09:53:34.581Z,7.45
2022-12-16T09:56:20.246Z,7.17
2022-12-16T09:59:09.080Z,7.47
2022-12-16T10:01:53.559Z,7.05
2022-12-16T10:04:41.344Z,8.23
2022-12-16T10:07:32.170Z,7.38
2022-12-16T10:10:24.211Z,8.15
2022-12-16T10:13:14.253Z,7.95
2022-12-16T10:16:04.722Z,7.63
2022-12-16T10:19:01.677Z,7.55
2022-12-16T10:21:51.732Z,8.02
2022-12-16T10:24:46.898Z,8.10
2022-12-16T10:27:30.703Z,7.72
2022-12-16T10:30:13.354Z,7.45
2022-12-16T10:32:58.963Z,7.45
2022-12-16T10:35:45.981Z,7.75
2022-12-16T10:38:37.659Z,7.47
2022-12-16T10:41:21.828Z,7.22
2022-12-16T10:44:06.000Z,6.72
2022-12-16T10:46:50.653Z,7.57
2022-12-16T10:49:34.920Z,7.22
2022-12-16T10:52:17.976Z,7.50
2022-12-16T10:55:15.587Z,7.40
2022-12-16T10:58:06.422Z,6.95
2022-12-16T11:00:58.172Z,6.80
2022-12-16T11:03:42.959Z,6.05
2022-12-16T11:06:28.472Z,6.20
2022-12-16T11:09:11.476Z,6.32
2022-12-16T11:11:56.687Z,6.60
2022-12-16T11:14:50.322Z,6.60
2022-12-16T11:17:59.059Z,6.97
2022-12-16T11:20:41.995Z,5.85
2022-12-16T11:23:34.133Z,7.25
2022-12-16T11:26:23.407Z,6.60
2022-12-16T11:29:26.883Z,6.18
2022-12-16T11:32:14.647Z,6.53
2022-12-16T11:34:59.314Z,6.47
2022-12-16T11:37:44.683Z,6.50
2022-12-16T11:40:31.699Z,7.75
2022-12-16T11:43:17.225Z,6.25
2022-12-16T11:46:04.265Z,6.40
2022-12-16T11:48:55.913Z,6.18
2022-12-16T11:51:40.022Z,7.10
2022-12-16T11:54:30.406Z,6.32
2022-12-16T11:57:16.305Z,5.63
2022-12-16T12:00:06.257Z,5.28
2022-12-16T12:02:56.086Z,5.88
2022-12-16T12:05:45.708Z,5.93
2022-12-16T12:08:37.579Z,5.70
2022-12-16T12:11:27.955Z,6.28
2022-12-16T12:14:20.800Z,5.53
2022-12-16T12:17:15.342Z,6.32
2022-12-16T12:20:12.229Z,5.03
2022-12-16T12:22:55.981Z,5.53
2022-12-16T12:25:43.396Z,5.57
2022-12-16T12:31:31.062Z,6.38
2022-12-16T12:34:20.684Z,5.78
2022-12-16T12:37:15.308Z,7.55
2022-12-16T12:40:01.569Z,7.03
2022-12-16T12:42:52.376Z,13.32
2022-12-16T12:46:05.919Z,9.75
2022-12-16T12:48:56.089Z,6.13
2022-12-16T12:51:45.849Z,7.18
2022-12-16T12:54:40.865Z,6.80
2022-12-16T12:57:28.353Z,5.95
2022-12-16T13:00:25.868Z,4.82
2022-12-16T13:03:16.602Z,4.43
2022-12-16T13:06:00.023Z,4.43
2022-12-16T13:08:58.712Z,4.45
2022-12-16T13:11:44.375Z,4.43
2022-12-16T13:14:56.998Z,3.63
2022-12-16T13:17:39.752Z,3.40
2022-12-16T13:20:51.418Z,6.57
2022-12-16T13:23:48.025Z,4.72
2022-12-16T13:26:32.927Z,2.47
2022-12-16T13:29:35.249Z,2.53
2022-12-16T13:32:20.256Z,2.60
2022-12-16T13:35:14.834Z,3.47
2022-12-16T13:38:07.459Z,4.38
2022-12-16T13:41:04.559Z,3.15
2022-12-16T13:44:03.326Z,1.95
2022-12-16T13:46:59.267Z,2.40
2022-12-16T13:49:59.185Z,3.97
2022-12-16T13:52:56.576Z,1.92
2022-12-16T13:55:45.844Z,3.97
2022-12-16T13:58:39.943Z,2.35
2022-12-16T14:01:27.698Z,2.20
2022-12-16T14:04:18.986Z,2.42
2022-12-16T14:07:01.850Z,1.98
2022-12-16T14:09:49.670Z,2.25
2022-12-16T14:12:51.704Z,1.88
2022-12-16T14:15:41.248Z,2.00
2022-12-16T14:18:33.551Z,1.48
2022-12-16T14:21:19.937Z,1.85
2022-12-16T14:24:08.799Z,2.20
2022-12-16T14:26:53.007Z,3.58
2022-12-16T14:29:38.658Z,3.67
2022-12-16T14:32:36.569Z,5.50
2022-12-16T14:35:20.876Z,2.08
2022-12-16T14:38:15.162Z,1.92
2022-12-16T14:40:57.965Z,2.42
2022-12-16T14:43:41.729Z,3.03
2022-12-16T14:46:39.986Z,1.77
2022-12-16T14:49:33.521Z,3.42
2022-12-16T14:52:16.168Z,1.80
2022-12-16T14:55:01.924Z,2.22
2022-12-16T14:57:46.822Z,2.08
2022-12-16T15:00:32.329Z,1.80
2022-12-16T15:03:21.600Z,2.03
2022-12-16T15:06:04.997Z,2.58
2022-12-16T15:08:52.693Z,2.42
2022-12-16T15:11:41.108Z,2.50
2022-12-16T15:14:32.048Z,2.72
2022-12-16T15:17:15.426Z,3.03
2022-12-16T15:20:03.657Z,2.70
2022-12-16T15:22:47.098Z,2.63
2022-12-16T15:25:39.299Z,2.17
2022-12-16T15:28:39.198Z,2.83
2022-12-16T15:31:29.417Z,2.05
2022-12-16T15:34:37.187Z,1.45
2022-12-16T15:37:20.159Z,2.00
2022-12-16T15:40:02.866Z,1.33
2022-12-16T15:42:48.422Z,2.30
2022-12-16T15:45:41.253Z,1.80
2022-12-16T15:48:28.409Z,2.65
2022-12-16T15:51:11.173Z,4.75
2022-12-16T15:53:54.574Z,5.20
2022-12-16T15:56:39.886Z,5.07
2022-12-16T15:59:37.956Z,4.80
2022-12-16T16:05:11.687Z,4.47
2022-12-16T16:07:57.826Z,6.13
2022-12-16T16:10:45.900Z,7.95
2022-12-16T16:13:28.552Z,8.90
2022-12-16T16:16:11.805Z,12.45
2022-12-16T16:18:58.257Z,14.50
2022-12-16T16:21:41.114Z,16.92
2022-12-16T16:24:24.222Z,16.25
2022-12-16T16:27:17.385Z,18.00
2022-12-16T16:30:00.272Z,18.00
2022-12-16T16:32:42.911Z,18.65
2022-12-16T16:35:28.291Z,15.73
2022-12-16T16:38:14.222Z,18.83
2022-12-16T16:41:01.215Z,17.83
2022-12-16T16:43:44.636Z,14.80
2022-12-16T16:46:46.964Z,15.55
2022-12-16T16:49:35.863Z,15.48
2022-12-16T16:52:24.194Z,12.40
2022-12-16T16:55:06.960Z,15.55
2022-12-16T16:58:04.858Z,19.65
2022-12-16T17:00:47.585Z,21.10
2022-12-16T17:03:30.790Z,22.20
2022-12-16T17:06:13.620Z,24.83
2022-12-16T17:08:59.024Z,22.38
2022-12-16T17:11:43.527Z,21.85
2022-12-16T17:14:27.976Z,20.17
2022-12-16T17:17:10.710Z,20.52
2022-12-16T17:19:53.386Z,21.45
2022-12-16T17:22:36.115Z,16.77
2022-12-16T17:25:22.728Z,16.83
2022-12-16T17:28:05.447Z,22.57
2022-12-16T17:30:48.241Z,15.30
2022-12-16T17:33:31.280Z,14.52
2022-12-16T17:36:14.161Z,9.57
2022-12-16T17:38:59.155Z,13.32
2022-12-16T17:41:46.764Z,14.52
2022-12-16T17:44:29.646Z,13.40
2022-12-16T17:47:12.262Z,13.40
2022-12-16T17:49:54.850Z,14.43
2022-12-16T17:52:37.532Z,12.50
2022-12-16T17:55:21.073Z,12.30
2022-12-16T17:58:06.362Z,30.92
2022-12-16T18:00:49.120Z,18.48
2022-12-16T18:03:32.232Z,81.65
2022-12-16T18:06:15.127Z,57.53
2022-12-16T18:08:57.898Z,44.97
2022-12-16T18:11:40.589Z,33.72
2022-12-16T18:14:25.838Z,31.00
2022-12-16T18:17:08.447Z,29.17
2022-12-16T18:19:51.191Z,20.77
2022-12-16T18:22:33.881Z,25.55
2022-12-16T18:25:25.386Z,22.25
2022-12-16T18:28:08.096Z,21.33
2022-12-16T18:30:54.031Z,24.27
2022-12-16T18:33:37.209Z,25.63
2022-12-16T18:36:20.702Z,25.83
2022-12-16T18:39:03.332Z,24.70
2022-12-16T18:41:45.935Z,23.05
2022-12-16T18:44:29.426Z,24.70
2022-12-16T18:47:15.065Z,25.70
2022-12-16T18:49:57.887Z,25.10
2022-12-16T18:52:40.624Z,26.35
2022-12-16T18:55:23.906Z,25.55
2022-12-16T18:58:21.123Z,23.08
2022-12-16T19:01:16.196Z,24.65
2022-12-16T19:04:16.415Z,24.60
2022-12-16T19:06:59.143Z,24.42
2022-12-16T19:09:42.119Z,28.08
2022-12-16T19:12:24.978Z,27.13
2022-12-16T19:15:07.699Z,26.77
2022-12-16T19:17:50.430Z,31.05
2022-12-16T19:20:36.867Z,34.30
2022-12-16T19:23:19.851Z,36.95
2022-12-16T19:26:02.601Z,33.97
2022-12-16T19:28:45.500Z,35.85
2022-12-16T19:31:32.490Z,31.83
2022-12-16T19:34:15.311Z,33.75
2022-12-16T19:37:00.578Z,29.23
2022-12-16T19:39:43.485Z,30.88
2022-12-16T19:42:26.348Z,34.83
2022-12-16T19:45:09.295Z,32.67
2022-12-16T19:47:51.918Z,32.20
2022-12-16T19:50:34.689Z,29.85
2022-12-16T19:53:19.981Z,31.38
2022-12-16T19:56:03.062Z,30.83
2022-12-16T19:58:45.723Z,32.70
2022-12-16T20:01:28.541Z,33.10
2022-12-16T20:04:11.311Z,30.88
2022-12-16T20:06:55.965Z,32.63
2022-12-16T20:09:41.394Z,32.45
2022-12-16T20:12:24.183Z,31.95
2022-12-16T20:15:06.804Z,30.10
2022-12-16T20:17:49.512Z,30.63
2022-12-16T20:20:32.347Z,34.20
2022-12-16T20:23:15.069Z,32.95
2022-12-16T20:26:09.503Z,29.42
2022-12-16T20:28:52.327Z,26.27
2022-12-16T20:31:39.038Z,26.35
2022-12-16T20:34:21.739Z,26.27
2022-12-16T20:37:04.463Z,27.90
2022-12-16T20:39:56.404Z,29.00
2022-12-16T20:42:46.282Z,28.92
2022-12-16T20:45:29.090Z,28.27
2022-12-16T20:48:11.759Z,26.30
2022-12-16T20:50:55.937Z,21.38
2022-12-16T20:53:39.487Z,21.27
2022-12-16T20:56:22.760Z,19.33
2022-12-16T20:59:08.012Z,18.60
2022-12-16T21:04:55.730Z,24.42
2022-12-16T21:07:38.911Z,26.40
2022-12-16T21:10:22.707Z,28.10
2022-12-16T21:13:07.056Z,29.52
2022-12-16T21:15:53.374Z,27.77
2022-12-16T21:18:39.591Z,38.55
2022-12-16T21:21:22.728Z,41.33
2022-12-16T21:24:06.007Z,46.88
2022-12-16T21:26:49.224Z,40.47
2022-12-16T21:29:32.328Z,39.55
2022-12-16T21:32:18.059Z,31.52
2022-12-16T21:35:01.308Z,34.92
2022-12-16T21:37:44.540Z,31.05
2022-12-16T21:40:27.364Z,31.38
2022-12-16T21:43:10.542Z,26.90
2022-12-16T21:45:53.306Z,26.00
2022-12-16T21:48:41.546Z,24.35
2022-12-16T21:51:24.272Z,24.20
2022-12-16T21:54:09.878Z,25.27
2022-12-16T21:56:52.782Z,24.23
2022-12-16T21:59:39.330Z,26.07
2022-12-16T22:02:23.690Z,27.33
2022-12-16T22:05:08.950Z,28.83
2022-12-16T22:07:51.931Z,27.63
2022-12-16T22:10:34.696Z,28.42
2022-12-16T22:13:17.484Z,29.52
2022-12-16T22:16:09.625Z,30.48
2022-12-16T22:18:52.363Z,32.78
2022-12-16T22:21:41.476Z,32.33
2022-12-16T22:24:24.481Z,31.08
2022-12-16T22:27:07.207Z,34.42
2022-12-16T22:29:49.944Z,36.95
2022-12-16T22:32:32.570Z,34.50
2022-12-16T22:35:15.052Z,37.08
2022-12-16T22:38:00.396Z,36.40
2022-12-16T22:40:43.106Z,37.92
2022-12-16T22:43:25.901Z,34.25
2022-12-16T22:46:14.530Z,32.58
2022-12-16T22:48:57.199Z,32.78
2022-12-16T22:51:39.908Z,31.15
2022-12-16T22:54:25.392Z,34.38
2022-12-16T22:57:08.054Z,43.15
2022-12-16T22:59:53.605Z,43.67
2022-12-16T23:02:38.644Z,39.53
2022-12-16T23:05:27.314Z,38.65
2022-12-16T23:08:10.780Z,41.15
2022-12-16T23:10:56.496Z,57.00
2022-12-16T23:13:41.428Z,54.03
2022-12-16T23:16:24.408Z,49.30
2022-12-16T23:19:07.043Z,40.55
2022-12-16T23:21:49.679Z,38.95
2022-12-16T23:24:32.287Z,39.03
2022-12-16T23:27:17.586Z,39.80
2022-12-16T23:30:00.242Z,41.40
2022-12-16T23:32:42.929Z,39.72
2022-12-16T23:35:26.064Z,40.55
2022-12-16T23:38:15.713Z,37.72
2022-12-16T23:40:58.358Z,37.92
2022-12-16T23:43:43.791Z,36.33
2022-12-16T23:46:26.702Z,32.00
2022-12-16T23:49:09.367Z,32.55
2022-12-16T23:51:52.059Z,29.30
2022-12-16T23:54:34.774Z,26.48
2022-12-16T23:57:17.647Z,29.85
